Time;durP1;ratioP1;P1;durP2;ratioP2;P2;SDS_P1;SDS_P2;PMS_P1;PMS_P2;Temp;Humidity;BMP_temperature;BMP_pressure;BME280_temperature;BME280_humidity;BME280_pressure;Samples;Min_cycle;Max_cycle;Signal;HPM_P1;HPM_P2
2022/09/07 00:01:49;;;;;;;16.93;2.47;;;;;;;;;;4974054;28;20464;-52
2022/09/07 00:04:16;;;;;;;15.87;1.90;;;;;;;;;;4975582;28;20409;-53
2022/09/07 00:06:42;;;;;;;11.70;1.90;;;;;;;;;;4974449;28;20541;-51
2022/09/07 00:09:08;;;;;;;6.30;1.77;;;;;;;;;;4975342;28;20912;-53
2022/09/07 00:11:34;;;;;;;8.53;1.83;;;;;;;;;;4975233;28;20499;-53
2022/09/07 00:14:00;;;;;;;7.93;1.77;;;;;;;;;;4974081;28;20470;-53
2022/09/07 00:16:27;;;;;;;6.20;1.30;;;;;;;;;;4974403;28;20440;-53
2022/09/07 00:18:58;;;;;;;3.20;1.53;;;;;;;;;;4975458;28;20504;-51
2022/09/07 00:21:24;;;;;;;2.50;1.17;;;;;;;;;;4975029;28;20386;-53
2022/09/07 00:23:51;;;;;;;2.30;0.80;;;;;;;;;;4974909;28;20466;-53
2022/09/07 00:26:19;;;;;;;3.47;1.03;;;;;;;;;;4974626;28;20432;-53
2022/09/07 00:28:45;;;;;;;6.20;1.30;;;;;;;;;;4974905;28;20490;-53
2022/09/07 00:31:12;;;;;;;1.77;1.00;;;;;;;;;;4973878;28;20433;-53
2022/09/07 00:33:39;;;;;;;1.80;1.10;;;;;;;;;;4974089;28;20460;-52
2022/09/07 00:36:05;;;;;;;3.23;1.43;;;;;;;;;;4974673;28;20423;-52
2022/09/07 00:38:31;;;;;;;1.53;1.20;;;;;;;;;;4974677;28;20491;-52
2022/09/07 00:40:57;;;;;;;4.50;1.40;;;;;;;;;;4974836;28;20403;-51
2022/09/07 00:43:32;;;;;;;6.40;1.60;;;;;;;;;;4974510;28;20478;-53
2022/09/07 00:45:58;;;;;;;1.47;1.27;;;;;;;;;;4974433;28;20431;-53
2022/09/07 00:48:26;;;;;;;2.57;1.60;;;;;;;;;;4974222;28;20468;-53
2022/09/07 00:50:58;;;;;;;4.03;1.30;;;;;;;;;;4974581;28;20420;-53
2022/09/07 00:53:32;;;;;;;5.00;1.43;;;;;;;;;;4974694;28;20458;-53
2022/09/07 00:55:59;;;;;;;1.07;0.97;;;;;;;;;;4974337;28;20440;-53
2022/09/07 00:58:25;;;;;;;4.50;1.60;;;;;;;;;;4973984;28;20424;-53
2022/09/07 01:00:51;;;;;;;3.33;1.70;;;;;;;;;;4973867;28;20416;-53
2022/09/07 01:03:19;;;;;;;4.50;1.87;;;;;;;;;;4973182;28;20459;-54
2022/09/07 01:05:48;;;;;;;3.67;1.53;;;;;;;;;;4973727;28;20438;-53
2022/09/07 01:08:14;;;;;;;9.00;2.23;;;;;;;;;;4973248;28;20403;-54
2022/09/07 01:10:40;;;;;;;2.90;1.37;;;;;;;;;;4974138;28;20398;-53
2022/09/07 01:13:06;;;;;;;5.10;1.77;;;;;;;;;;4974066;28;20436;-54
2022/09/07 01:16:02;;;;;;;6.53;2.33;;;;;;;;;;4973502;28;20433;-54
2022/09/07 01:18:31;;;;;;;2.10;1.70;;;;;;;;;;4960639;28;20393;-51
2022/09/07 01:21:12;;;;;;;6.30;2.50;;;;;;;;;;4974528;28;20412;-47
2022/09/07 01:23:41;;;;;;;7.80;2.17;;;;;;;;;;4973756;28;20414;-49
2022/09/07 01:26:16;;;;;;;2.40;1.57;;;;;;;;;;4973671;28;20428;-46
2022/09/07 01:28:46;;;;;;;2.60;2.00;;;;;;;;;;4973805;28;20459;-47
2022/09/07 01:31:17;;;;;;;5.03;1.87;;;;;;;;;;4973812;28;20410;-47
2022/09/07 01:34:02;;;;;;;1.80;1.60;;;;;;;;;;4972034;28;20477;-48
2022/09/07 01:36:37;;;;;;;3.57;1.50;;;;;;;;;;4972452;28;20416;-49
2022/09/07 01:39:03;;;;;;;3.30;1.90;;;;;;;;;;4973699;28;20409;-50
2022/09/07 01:41:32;;;;;;;5.00;1.70;;;;;;;;;;4973728;28;20405;-49
2022/09/07 01:44:17;;;;;;;4.40;1.73;;;;;;;;;;4973426;28;20909;-47
2022/09/07 01:46:48;;;;;;;2.97;1.90;;;;;;;;;;4972599;28;20434;-46
2022/09/07 01:49:17;;;;;;;1.97;1.87;;;;;;;;;;4973415;28;20489;-49
2022/09/07 01:51:45;;;;;;;4.13;1.60;;;;;;;;;;4973438;28;20746;-47
2022/09/07 01:54:18;;;;;;;4.00;2.50;;;;;;;;;;4972681;28;20510;-47
2022/09/07 01:56:46;;;;;;;9.20;2.30;;;;;;;;;;4972603;28;20411;-48
2022/09/07 01:59:26;;;;;;;0.83;0.80;;;;;;;;;;4973104;28;20854;-48
2022/09/07 02:01:55;;;;;;;5.47;2.23;;;;;;;;;;4972227;28;20403;-51
2022/09/07 02:04:24;;;;;;;3.70;2.03;;;;;;;;;;4972679;28;20388;-47
2022/09/07 02:06:59;;;;;;;5.40;2.30;;;;;;;;;;4972499;28;20406;-47
2022/09/07 02:09:30;;;;;;;7.50;2.87;;;;;;;;;;4973262;28;20426;-47
2022/09/07 02:11:56;;;;;;;4.20;2.60;;;;;;;;;;4973181;28;20490;-47
2022/09/07 02:14:25;;;;;;;4.23;3.90;;;;;;;;;;4972981;28;20952;-51
2022/09/07 02:16:57;;;;;;;2.47;2.20;;;;;;;;;;4972363;28;20425;-46
2022/09/07 02:19:26;;;;;;;3.10;1.47;;;;;;;;;;4973208;28;20548;-47
2022/09/07 02:21:57;;;;;;;2.57;1.67;;;;;;;;;;4973001;28;20492;-51
2022/09/07 02:24:25;;;;;;;2.77;2.17;;;;;;;;;;4973010;28;20420;-47
2022/09/07 02:26:52;;;;;;;2.90;1.83;;;;;;;;;;4972226;28;20457;-47
2022/09/07 02:29:18;;;;;;;2.77;1.90;;;;;;;;;;4973009;28;20413;-48
2022/09/07 02:31:46;;;;;;;3.30;2.70;;;;;;;;;;4971961;28;20772;-49
2022/09/07 02:34:12;;;;;;;2.13;1.90;;;;;;;;;;4972906;28;20434;-47
2022/09/07 02:36:44;;;;;;;6.50;2.20;;;;;;;;;;4972175;28;20449;-48
2022/09/07 02:39:10;;;;;;;3.47;3.17;;;;;;;;;;4972920;28;20903;-48
2022/09/07 02:41:41;;;;;;;8.83;2.70;;;;;;;;;;4972969;28;20381;-47
2022/09/07 02:44:10;;;;;;;3.30;2.10;;;;;;;;;;4972633;28;20917;-48
2022/09/07 02:46:44;;;;;;;3.03;2.40;;;;;;;;;;4972044;28;20891;-49
2022/09/07 02:49:10;;;;;;;5.60;2.97;;;;;;;;;;4972757;28;20809;-49
2022/09/07 02:51:39;;;;;;;3.50;2.50;;;;;;;;;;4972808;28;20411;-48
2022/09/07 02:54:08;;;;;;;2.50;2.00;;;;;;;;;;4972773;28;20474;-47
2022/09/07 02:56:41;;;;;;;3.20;2.10;;;;;;;;;;4971831;28;20428;-48
2022/09/07 02:59:17;;;;;;;2.90;1.80;;;;;;;;;;4972528;28;20452;-48
2022/09/07 03:01:48;;;;;;;1.63;1.53;;;;;;;;;;4972592;28;20515;-50
2022/09/07 03:04:14;;;;;;;2.23;1.73;;;;;;;;;;4971810;28;20402;-47
2022/09/07 03:06:43;;;;;;;2.67;1.67;;;;;;;;;;4974682;28;20442;-46
2022/09/07 03:09:13;;;;;;;2.73;1.70;;;;;;;;;;4976270;28;20387;-49
2022/09/07 03:11:39;;;;;;;1.80;1.67;;;;;;;;;;4976218;28;20813;-48
2022/09/07 03:14:35;;;;;;;4.23;1.90;;;;;;;;;;4976024;28;20463;-48
2022/09/07 03:17:01;;;;;;;2.13;1.70;;;;;;;;;;4963137;28;20876;-48
2022/09/07 03:19:27;;;;;;;1.53;1.43;;;;;;;;;;4976183;28;20803;-47
2022/09/07 03:21:53;;;;;;;5.40;1.60;;;;;;;;;;4976077;28;20483;-49
2022/09/07 03:24:19;;;;;;;3.93;1.60;;;;;;;;;;4975980;28;20842;-46
2022/09/07 03:26:47;;;;;;;1.73;1.40;;;;;;;;;;4975216;28;20446;-46
2022/09/07 03:29:13;;;;;;;2.07;1.53;;;;;;;;;;4975941;28;20486;-48
2022/09/07 03:31:39;;;;;;;1.73;1.63;;;;;;;;;;4975228;28;20461;-48
2022/09/07 03:34:06;;;;;;;2.00;1.80;;;;;;;;;;4975137;28;20432;-47
2022/09/07 03:36:32;;;;;;;1.70;1.60;;;;;;;;;;4975239;28;20498;-47
2022/09/07 03:38:58;;;;;;;2.20;2.00;;;;;;;;;;4975737;28;20452;-49
2022/09/07 03:41:25;;;;;;;1.70;1.60;;;;;;;;;;4975634;28;20463;-48
2022/09/07 03:43:51;;;;;;;2.53;1.70;;;;;;;;;;4975808;28;20499;-51
2022/09/07 03:46:18;;;;;;;4.70;1.87;;;;;;;;;;4974951;28;21070;-47
2022/09/07 03:48:44;;;;;;;2.07;1.97;;;;;;;;;;4975591;28;20390;-50
2022/09/07 03:51:11;;;;;;;2.60;1.90;;;;;;;;;;4975562;28;20383;-49
2022/09/07 03:53:38;;;;;;;2.70;1.50;;;;;;;;;;4975351;28;20452;-48
2022/09/07 03:56:05;;;;;;;1.83;1.73;;;;;;;;;;4975232;28;20510;-47
2022/09/07 03:58:32;;;;;;;1.90;1.80;;;;;;;;;;4974878;28;20431;-48
2022/09/07 04:00:59;;;;;;;2.40;2.20;;;;;;;;;;4975411;28;20888;-48
2022/09/07 04:03:25;;;;;;;4.07;1.80;;;;;;;;;;4974369;28;20478;-47
2022/09/07 04:05:51;;;;;;;3.43;2.17;;;;;;;;;;4974776;28;20424;-48
2022/09/07 04:08:17;;;;;;;5.37;2.10;;;;;;;;;;4974709;28;20899;-47
2022/09/07 04:10:43;;;;;;;3.03;1.80;;;;;;;;;;4975269;28;20446;-47
2022/09/07 04:13:09;;;;;;;3.13;1.97;;;;;;;;;;4975100;28;20461;-48
2022/09/07 04:15:36;;;;;;;1.90;1.80;;;;;;;;;;4974717;28;20963;-48
2022/09/07 04:18:02;;;;;;;2.50;2.10;;;;;;;;;;4974053;28;20496;-48
2022/09/07 04:20:29;;;;;;;2.60;2.23;;;;;;;;;;4975483;28;20504;-47
2022/09/07 04:22:55;;;;;;;2.60;2.20;;;;;;;;;;4974887;28;20431;-49
2022/09/07 04:25:21;;;;;;;2.90;1.90;;;;;;;;;;4974818;28;20437;-48
2022/09/07 04:27:47;;;;;;;1.97;1.70;;;;;;;;;;4974454;28;20851;-48
2022/09/07 04:30:13;;;;;;;1.50;1.40;;;;;;;;;;4974812;28;20421;-47
2022/09/07 04:32:39;;;;;;;3.87;1.87;;;;;;;;;;4972824;28;20403;-49
2022/09/07 04:35:05;;;;;;;2.27;1.80;;;;;;;;;;4973896;28;20511;-51
2022/09/07 04:37:31;;;;;;;1.63;1.53;;;;;;;;;;4974081;28;20383;-51
2022/09/07 04:39:57;;;;;;;1.80;1.70;;;;;;;;;;4974565;28;20395;-48
2022/09/07 04:42:23;;;;;;;2.10;1.77;;;;;;;;;;4974772;28;20406;-47
2022/09/07 04:44:49;;;;;;;4.60;2.13;;;;;;;;;;4974392;28;20896;-47
2022/09/07 04:47:16;;;;;;;4.53;1.67;;;;;;;;;;4974085;28;20482;-48
2022/09/07 04:49:42;;;;;;;2.70;2.13;;;;;;;;;;4974471;28;20879;-50
2022/09/07 04:52:08;;;;;;;1.73;1.63;;;;;;;;;;4974321;28;20488;-46
2022/09/07 04:54:34;;;;;;;2.20;1.90;;;;;;;;;;4974224;28;20597;-46
2022/09/07 04:57:00;;;;;;;7.40;1.80;;;;;;;;;;4973614;28;20426;-48
2022/09/07 04:59:26;;;;;;;1.73;1.63;;;;;;;;;;4974132;28;20900;-47
2022/09/07 05:01:52;;;;;;;2.50;2.30;;;;;;;;;;4973174;28;20438;-46
2022/09/07 05:04:18;;;;;;;2.73;2.23;;;;;;;;;;4973615;28;20423;-47
2022/09/07 05:06:44;;;;;;;2.20;2.00;;;;;;;;;;4973291;28;21010;-47
2022/09/07 05:09:10;;;;;;;3.60;2.20;;;;;;;;;;4974248;28;20379;-49
2022/09/07 05:11:36;;;;;;;2.40;1.90;;;;;;;;;;4974144;28;20398;-49
2022/09/07 05:14:03;;;;;;;2.90;2.17;;;;;;;;;;4973840;28;20660;-50
2022/09/07 05:16:30;;;;;;;2.30;2.10;;;;;;;;;;4973382;28;20435;-47
2022/09/07 05:18:57;;;;;;;2.30;2.13;;;;;;;;;;4973911;28;20404;-51
2022/09/07 05:21:25;;;;;;;2.50;2.30;;;;;;;;;;4973820;28;20378;-47
2022/09/07 05:23:52;;;;;;;2.80;2.30;;;;;;;;;;4973790;28;20845;-49
2022/09/07 05:26:18;;;;;;;2.10;2.00;;;;;;;;;;4973331;28;20401;-47
2022/09/07 05:28:45;;;;;;;5.07;2.13;;;;;;;;;;4973125;28;20495;-48
2022/09/07 05:31:12;;;;;;;2.43;2.23;;;;;;;;;;4973643;28;20453;-47
2022/09/07 05:33:38;;;;;;;4.93;2.37;;;;;;;;;;4972305;28;20474;-48
2022/09/07 05:36:05;;;;;;;3.20;2.23;;;;;;;;;;4973389;28;20519;-51
2022/09/07 05:38:31;;;;;;;3.17;2.53;;;;;;;;;;4973080;28;20379;-50
2022/09/07 05:40:58;;;;;;;3.70;2.53;;;;;;;;;;4972680;28;20758;-49
2022/09/07 05:43:25;;;;;;;4.57;2.17;;;;;;;;;;4973355;28;20433;-47
2022/09/07 05:45:54;;;;;;;2.20;2.10;;;;;;;;;;4973276;28;20546;-49
2022/09/07 05:48:20;;;;;;;2.13;2.03;;;;;;;;;;4972814;28;20412;-49
2022/09/07 05:50:50;;;;;;;2.60;2.40;;;;;;;;;;4967524;28;20435;-48
2022/09/07 05:53:16;;;;;;;2.90;2.20;;;;;;;;;;4962712;28;20431;-46
2022/09/07 05:55:42;;;;;;;2.37;2.20;;;;;;;;;;4953793;28;20465;-47
2022/09/07 05:58:09;;;;;;;2.80;2.40;;;;;;;;;;4953484;28;20922;-49
2022/09/07 06:00:34;;;;;;;3.47;1.87;;;;;;;;;;4954009;28;20407;-47
2022/09/07 06:03:00;;;;;;;3.20;1.97;;;;;;;;;;4968291;28;20447;-47
2022/09/07 06:05:26;;;;;;;2.10;2.00;;;;;;;;;;4972615;28;20413;-47
2022/09/07 06:07:52;;;;;;;1.93;1.83;;;;;;;;;;4972606;28;20777;-47
2022/09/07 06:10:18;;;;;;;4.00;2.50;;;;;;;;;;4973236;28;20404;-47
2022/09/07 06:12:45;;;;;;;3.10;2.20;;;;;;;;;;4972725;28;20431;-50
2022/09/07 06:15:11;;;;;;;2.47;2.27;;;;;;;;;;4972880;28;20417;-47
2022/09/07 06:17:37;;;;;;;2.80;2.50;;;;;;;;;;4972444;28;20890;-50
2022/09/07 06:20:03;;;;;;;2.37;2.17;;;;;;;;;;4973404;28;20464;-48
2022/09/07 06:22:29;;;;;;;3.70;2.30;;;;;;;;;;4973235;28;20404;-49
2022/09/07 06:24:55;;;;;;;2.63;2.10;;;;;;;;;;4972916;28;20743;-49
2022/09/07 06:27:21;;;;;;;2.80;2.10;;;;;;;;;;4972476;28;20416;-51
2022/09/07 06:29:47;;;;;;;3.20;2.30;;;;;;;;;;4972881;28;20407;-46
2022/09/07 06:32:13;;;;;;;2.57;2.10;;;;;;;;;;4971496;28;20572;-47
2022/09/07 06:34:39;;;;;;;2.47;2.27;;;;;;;;;;4971561;28;20555;-52
2022/09/07 06:37:05;;;;;;;2.40;2.20;;;;;;;;;;4972096;28;20422;-47
2022/09/07 06:39:33;;;;;;;2.57;2.47;;;;;;;;;;4973120;28;20528;-48
2022/09/07 06:41:59;;;;;;;3.63;2.60;;;;;;;;;;4976321;28;20476;-48
2022/09/07 06:44:25;;;;;;;2.77;2.57;;;;;;;;;;4976568;28;20538;-51
2022/09/07 06:46:51;;;;;;;3.80;3.47;;;;;;;;;;4976754;28;20428;-51
2022/09/07 06:49:17;;;;;;;3.93;3.03;;;;;;;;;;4976644;28;20893;-48
2022/09/07 06:51:43;;;;;;;2.97;2.67;;;;;;;;;;4976678;28;20496;-47
2022/09/07 06:54:09;;;;;;;3.37;3.07;;;;;;;;;;4976442;28;20484;-47
2022/09/07 06:56:35;;;;;;;3.07;2.40;;;;;;;;;;4975811;28;20416;-48
2022/09/07 06:59:01;;;;;;;3.00;2.80;;;;;;;;;;4975136;28;20421;-52
2022/09/07 07:01:28;;;;;;;4.73;3.00;;;;;;;;;;4974571;28;20886;-48
2022/09/07 07:03:54;;;;;;;2.90;2.70;;;;;;;;;;4975147;28;20471;-47
2022/09/07 07:06:21;;;;;;;3.70;3.20;;;;;;;;;;4976090;28;20499;-50
2022/09/07 07:08:47;;;;;;;5.53;3.50;;;;;;;;;;4974804;28;20898;-49
2022/09/07 07:11:14;;;;;;;3.30;3.00;;;;;;;;;;4976199;28;20412;-51
2022/09/07 07:13:41;;;;;;;2.27;2.17;;;;;;;;;;4976078;28;20459;-49
2022/09/07 07:16:08;;;;;;;3.70;2.90;;;;;;;;;;4975888;28;20850;-51
2022/09/07 07:18:34;;;;;;;2.90;2.20;;;;;;;;;;4975656;28;20464;-48
2022/09/07 07:21:13;;;;;;;3.17;2.20;;;;;;;;;;4976800;28;20421;-47
2022/09/07 07:23:39;;;;;;;3.63;2.43;;;;;;;;;;4976032;28;20401;-49
2022/09/07 07:26:16;;;;;;;3.50;2.03;;;;;;;;;;4975633;28;20934;-48
2022/09/07 07:28:43;;;;;;;1.97;1.87;;;;;;;;;;4975554;28;20924;-49
2022/09/07 07:31:09;;;;;;;2.30;2.17;;;;;;;;;;4975275;28;20413;-51
2022/09/07 07:33:36;;;;;;;3.20;2.20;;;;;;;;;;4975286;28;20448;-48
2022/09/07 07:36:08;;;;;;;2.10;1.90;;;;;;;;;;4975487;28;20461;-48
2022/09/07 07:38:34;;;;;;;2.30;2.00;;;;;;;;;;4975341;28;20429;-49
2022/09/07 07:41:00;;;;;;;2.87;2.10;;;;;;;;;;4975682;28;20401;-48
2022/09/07 07:43:26;;;;;;;2.30;2.10;;;;;;;;;;4975664;28;20785;-49
2022/09/07 07:45:54;;;;;;;7.60;2.27;;;;;;;;;;4975353;28;20491;-48
2022/09/07 07:48:20;;;;;;;7.70;2.23;;;;;;;;;;4975079;28;20405;-48
2022/09/07 07:50:56;;;;;;;5.40;3.13;;;;;;;;;;4975370;28;20915;-48
2022/09/07 07:53:22;;;;;;;2.13;2.03;;;;;;;;;;4973288;28;20868;-48
2022/09/07 07:55:48;;;;;;;3.10;2.40;;;;;;;;;;4975412;28;20424;-51
2022/09/07 07:58:14;;;;;;;3.93;1.90;;;;;;;;;;4974368;28;20420;-52
2022/09/07 08:00:40;;;;;;;2.37;2.17;;;;;;;;;;4971891;28;20423;-51
2022/09/07 08:03:06;;;;;;;3.90;2.17;;;;;;;;;;4964414;28;20791;-47
2022/09/07 08:05:34;;;;;;;3.10;1.97;;;;;;;;;;4954124;29;20516;-50
2022/09/07 08:08:00;;;;;;;3.57;2.30;;;;;;;;;;4954983;29;20776;-47
2022/09/07 08:10:28;;;;;;;3.70;2.23;;;;;;;;;;4955864;29;20411;-49
2022/09/07 08:12:54;;;;;;;2.90;2.10;;;;;;;;;;4955722;29;20504;-49
2022/09/07 08:15:20;;;;;;;2.30;2.10;;;;;;;;;;4955521;29;20425;-49
2022/09/07 08:17:47;;;;;;;3.37;1.70;;;;;;;;;;4955315;29;20405;-49
2022/09/07 08:20:13;;;;;;;2.20;1.80;;;;;;;;;;4955737;29;20406;-49
2022/09/07 08:22:39;;;;;;;2.07;1.80;;;;;;;;;;4955505;29;20401;-49
2022/09/07 08:25:06;;;;;;;3.77;1.50;;;;;;;;;;4955490;29;20480;-48
2022/09/07 08:27:32;;;;;;;3.90;2.17;;;;;;;;;;4955163;29;20765;-48
2022/09/07 08:29:59;;;;;;;3.57;1.80;;;;;;;;;;4955530;29;20408;-51
2022/09/07 08:32:25;;;;;;;3.07;1.80;;;;;;;;;;4966388;28;20444;-50
2022/09/07 08:34:50;;;;;;;3.57;2.00;;;;;;;;;;4974346;28;20452;-51
2022/09/07 08:37:16;;;;;;;4.80;1.80;;;;;;;;;;4974257;28;20417;-47
2022/09/07 08:39:42;;;;;;;2.00;1.90;;;;;;;;;;4974639;28;20484;-48
2022/09/07 08:42:14;;;;;;;1.97;1.77;;;;;;;;;;4974598;28;20488;-48
2022/09/07 08:44:45;;;;;;;2.57;1.80;;;;;;;;;;4974500;28;20408;-48
2022/09/07 08:47:29;;;;;;;4.03;1.60;;;;;;;;;;4973983;28;20433;-48
2022/09/07 08:50:09;;;;;;;2.47;2.03;;;;;;;;;;4974332;28;20416;-48
2022/09/07 08:52:41;;;;;;;2.00;1.90;;;;;;;;;;4974223;28;20788;-48
2022/09/07 08:55:25;;;;;;;2.70;1.70;;;;;;;;;;4974183;28;20404;-48
2022/09/07 08:58:04;;;;;;;2.60;2.07;;;;;;;;;;4973799;28;20424;-47
2022/09/07 09:00:30;;;;;;;2.10;1.90;;;;;;;;;;4974327;28;20409;-47
2022/09/07 09:02:59;;;;;;;4.07;1.80;;;;;;;;;;4972815;28;20432;-46
2022/09/07 09:05:26;;;;;;;4.03;1.80;;;;;;;;;;4972424;28;20429;-48
2022/09/07 09:08:15;;;;;;;2.33;1.90;;;;;;;;;;4973616;28;20405;-47
2022/09/07 09:10:57;;;;;;;2.43;1.93;;;;;;;;;;4966218;28;20523;-51
2022/09/07 09:13:30;;;;;;;7.60;2.17;;;;;;;;;;4973892;28;20449;-51
2022/09/07 09:16:05;;;;;;;2.57;2.03;;;;;;;;;;4971577;28;20791;-50
2022/09/07 09:18:34;;;;;;;2.80;2.60;;;;;;;;;;4973309;28;20881;-48
2022/09/07 09:21:00;;;;;;;1.93;1.77;;;;;;;;;;4973615;28;20433;-50
2022/09/07 09:23:46;;;;;;;2.33;2.13;;;;;;;;;;4973447;28;20409;-50
2022/09/07 09:26:23;;;;;;;3.17;2.50;;;;;;;;;;4973407;28;20527;-50
2022/09/07 09:28:49;;;;;;;3.20;2.30;;;;;;;;;;4973247;28;20420;-48
2022/09/07 09:31:19;;;;;;;3.23;2.20;;;;;;;;;;4972370;28;20432;-50
2022/09/07 09:34:05;;;;;;;2.63;2.33;;;;;;;;;;4973136;28;20460;-48
2022/09/07 09:36:33;;;;;;;2.60;2.40;;;;;;;;;;4972737;28;20518;-50
2022/09/07 09:38:59;;;;;;;2.77;2.50;;;;;;;;;;4973366;28;20409;-48
2022/09/07 09:41:34;;;;;;;2.60;2.40;;;;;;;;;;4973255;28;20417;-51
2022/09/07 09:44:02;;;;;;;2.60;2.30;;;;;;;;;;4973090;28;20411;-49
2022/09/07 09:46:33;;;;;;;6.03;2.43;;;;;;;;;;4973030;28;20432;-47
2022/09/07 09:49:00;;;;;;;3.87;2.40;;;;;;;;;;4973236;28;20417;-48
2022/09/07 09:51:27;;;;;;;4.70;2.70;;;;;;;;;;4973077;28;20401;-48
2022/09/07 09:53:56;;;;;;;3.20;2.20;;;;;;;;;;4973504;28;20453;-49
2022/09/07 09:56:23;;;;;;;4.53;3.30;;;;;;;;;;4972795;28;20916;-47
2022/09/07 09:58:49;;;;;;;3.80;2.23;;;;;;;;;;4972582;28;20427;-48
2022/09/07 10:01:22;;;;;;;3.87;2.50;;;;;;;;;;4972198;28;20416;-49
2022/09/07 10:03:48;;;;;;;6.73;3.30;;;;;;;;;;4972962;28;20412;-48
2022/09/07 10:06:16;;;;;;;5.97;3.00;;;;;;;;;;4972831;28;20427;-48
2022/09/07 10:08:55;;;;;;;2.07;1.97;;;;;;;;;;4972379;28;20413;-51
2022/09/07 10:11:38;;;;;;;2.63;2.43;;;;;;;;;;4971436;28;20433;-48
2022/09/07 10:14:04;;;;;;;2.70;2.40;;;;;;;;;;4972962;28;20456;-48
2022/09/07 10:16:37;;;;;;;8.50;2.87;;;;;;;;;;4972172;28;20436;-48
2022/09/07 10:19:02;;;;;;;3.87;2.43;;;;;;;;;;4973022;28;20440;-48
2022/09/07 10:21:32;;;;;;;2.23;2.03;;;;;;;;;;4972703;28;20441;-48
2022/09/07 10:24:06;;;;;;;2.20;2.00;;;;;;;;;;4972712;28;20405;-48
2022/09/07 10:26:33;;;;;;;2.00;1.90;;;;;;;;;;4972308;28;20495;-51
2022/09/07 10:29:06;;;;;;;2.20;2.00;;;;;;;;;;4970588;28;20416;-48
2022/09/07 10:31:34;;;;;;;2.13;1.70;;;;;;;;;;4970609;28;20475;-48
2022/09/07 10:34:17;;;;;;;3.07;1.90;;;;;;;;;;4972509;28;20464;-49
2022/09/07 10:36:46;;;;;;;2.23;1.67;;;;;;;;;;4970559;28;20444;-48
2022/09/07 10:39:14;;;;;;;4.70;2.03;;;;;;;;;;4971290;28;20774;-47
2022/09/07 10:41:51;;;;;;;3.40;2.17;;;;;;;;;;4972255;28;20401;-47
2022/09/07 10:44:36;;;;;;;2.40;1.80;;;;;;;;;;4972658;28;20409;-50
2022/09/07 10:47:20;;;;;;;2.50;1.60;;;;;;;;;;4970713;28;20773;-49
2022/09/07 10:49:50;;;;;;;1.70;1.60;;;;;;;;;;4952728;28;20413;-49
2022/09/07 10:52:28;;;;;;;2.17;1.97;;;;;;;;;;4953072;28;20414;-49
2022/09/07 10:55:09;;;;;;;1.67;1.53;;;;;;;;;;4953029;28;20839;-48
2022/09/07 10:57:54;;;;;;;1.93;1.70;;;;;;;;;;4952788;28;20409;-49
2022/09/07 11:00:20;;;;;;;4.50;2.00;;;;;;;;;;4953028;28;20471;-53
2022/09/07 11:02:46;;;;;;;1.83;1.73;;;;;;;;;;4953652;29;20732;-53
2022/09/07 11:05:32;;;;;;;1.97;1.80;;;;;;;;;;4953285;29;20430;-53
2022/09/07 11:07:58;;;;;;;3.37;1.70;;;;;;;;;;4942686;28;20206;-53
2022/09/07 11:10:43;;;;;;;2.90;2.00;;;;;;;;;;4953335;29;20401;-52
2022/09/07 11:13:12;;;;;;;2.50;2.30;;;;;;;;;;4954556;28;20736;-53
2022/09/07 11:15:48;;;;;;;3.93;2.47;;;;;;;;;;4972002;28;20461;-53
2022/09/07 11:18:20;;;;;;;4.00;2.40;;;;;;;;;;4972102;28;20401;-50
2022/09/07 11:20:54;;;;;;;2.03;1.83;;;;;;;;;;4972880;28;20471;-52
2022/09/07 11:23:23;;;;;;;1.83;1.70;;;;;;;;;;4971560;28;20412;-52
2022/09/07 11:26:10;;;;;;;1.80;1.70;;;;;;;;;;4971875;28;20443;-52
2022/09/07 11:28:47;;;;;;;2.30;1.50;;;;;;;;;;4974873;28;20424;-54
2022/09/07 11:31:18;;;;;;;3.43;1.70;;;;;;;;;;4974536;28;20488;-52
2022/09/07 11:33:53;;;;;;;1.77;1.40;;;;;;;;;;4974564;28;20551;-49
2022/09/07 11:36:20;;;;;;;1.87;1.40;;;;;;;;;;4974922;28;20456;-49
2022/09/07 11:38:50;;;;;;;1.70;1.60;;;;;;;;;;4973038;28;20409;-51
2022/09/07 11:41:20;;;;;;;2.33;1.80;;;;;;;;;;4975585;28;20496;-50
2022/09/07 11:43:47;;;;;;;2.43;1.80;;;;;;;;;;4975371;28;20504;-51
2022/09/07 11:46:16;;;;;;;2.10;1.60;;;;;;;;;;4973971;28;20428;-51
2022/09/07 11:48:53;;;;;;;2.80;1.63;;;;;;;;;;4973673;28;20468;-51
2022/09/07 11:51:38;;;;;;;2.77;1.60;;;;;;;;;;4974788;28;20409;-50
2022/09/07 11:54:23;;;;;;;2.03;1.30;;;;;;;;;;4975286;28;20456;-52
2022/09/07 11:56:56;;;;;;;1.70;1.53;;;;;;;;;;4974081;28;20542;-50
2022/09/07 11:59:38;;;;;;;2.13;1.50;;;;;;;;;;4974750;28;20448;-51
2022/09/07 12:02:13;;;;;;;1.70;1.60;;;;;;;;;;4974390;28;20792;-51
2022/09/07 12:04:45;;;;;;;2.33;1.23;;;;;;;;;;4974467;28;20435;-51
2022/09/07 12:07:11;;;;;;;1.53;1.43;;;;;;;;;;4973667;28;20425;-48
2022/09/07 12:09:53;;;;;;;1.90;1.70;;;;;;;;;;4974641;28;20941;-48
2022/09/07 12:12:19;;;;;;;2.80;1.43;;;;;;;;;;4975264;28;20492;-48
2022/09/07 12:15:03;;;;;;;5.20;1.63;;;;;;;;;;4972033;28;20914;-49
2022/09/07 12:17:40;;;;;;;2.70;1.67;;;;;;;;;;4974182;28;20408;-49
2022/09/07 12:20:20;;;;;;;2.40;1.70;;;;;;;;;;4975157;28;20405;-49
2022/09/07 12:23:06;;;;;;;3.20;1.73;;;;;;;;;;4974879;28;20397;-48
2022/09/07 12:25:35;;;;;;;2.33;1.50;;;;;;;;;;4974443;28;20417;-49
2022/09/07 12:28:01;;;;;;;5.53;1.57;;;;;;;;;;4973476;28;20428;-49
2022/09/07 12:30:29;;;;;;;2.37;1.43;;;;;;;;;;4974596;28;20397;-48
2022/09/07 12:32:55;;;;;;;3.47;1.90;;;;;;;;;;4973627;28;20825;-48
2022/09/07 12:35:27;;;;;;;4.73;1.70;;;;;;;;;;4963005;28;20776;-48
2022/09/07 12:37:55;;;;;;;7.33;1.63;;;;;;;;;;4973414;28;20448;-50
2022/09/07 12:43:12;;;;;;;2.17;1.87;;;;;;;;;;4974404;28;20389;-49
2022/09/07 12:45:38;;;;;;;2.70;1.63;;;;;;;;;;4972690;28;20767;-50
2022/09/07 12:48:20;;;;;;;2.13;1.47;;;;;;;;;;4973749;28;20405;-49
2022/09/07 12:50:54;;;;;;;4.30;1.53;;;;;;;;;;4973340;28;20547;-51
2022/09/07 12:53:39;;;;;;;5.43;2.37;;;;;;;;;;4973422;28;20544;-48
2022/09/07 12:56:08;;;;;;;4.13;1.60;;;;;;;;;;4974149;28;20515;-48
2022/09/07 12:58:35;;;;;;;1.50;1.40;;;;;;;;;;4973518;28;20483;-48
2022/09/07 13:01:19;;;;;;;1.80;1.70;;;;;;;;;;4974291;28;20400;-48
2022/09/07 13:04:02;;;;;;;1.97;1.77;;;;;;;;;;4970543;28;20955;-51
2022/09/07 13:06:37;;;;;;;3.20;1.70;;;;;;;;;;4954381;29;20933;-49
2022/09/07 13:09:15;;;;;;;2.23;1.77;;;;;;;;;;4954344;29;20493;-48
2022/09/07 13:11:41;;;;;;;2.47;1.60;;;;;;;;;;4954543;29;20413;-48
2022/09/07 13:14:13;;;;;;;1.77;1.67;;;;;;;;;;4954201;28;20483;-50
2022/09/07 13:16:40;;;;;;;1.90;1.53;;;;;;;;;;4972294;28;20449;-48
2022/09/07 13:19:07;;;;;;;3.27;2.10;;;;;;;;;;4973645;28;20817;-50
2022/09/07 13:21:33;;;;;;;3.67;2.10;;;;;;;;;;4974446;28;20752;-51
2022/09/07 13:24:26;;;;;;;2.47;1.83;;;;;;;;;;4973368;28;20405;-50
2022/09/07 13:26:58;;;;;;;2.20;2.10;;;;;;;;;;4969122;28;20479;-49
2022/09/07 13:29:36;;;;;;;2.10;1.83;;;;;;;;;;4973868;28;20565;-51
2022/09/07 13:32:02;;;;;;;4.10;2.80;;;;;;;;;;4973477;28;20410;-49
2022/09/07 13:34:34;;;;;;;2.70;2.13;;;;;;;;;;4973429;28;20460;-51
2022/09/07 13:37:01;;;;;;;2.07;1.90;;;;;;;;;;4972023;28;20200;-48
2022/09/07 13:39:27;;;;;;;2.17;1.97;;;;;;;;;;4973143;28;20416;-48
2022/09/07 13:41:57;;;;;;;1.90;1.80;;;;;;;;;;4973339;28;20405;-51
2022/09/07 13:44:25;;;;;;;6.73;2.20;;;;;;;;;;4973148;28;20419;-48
2022/09/07 13:47:01;;;;;;;2.80;2.07;;;;;;;;;;4961876;28;20529;-48
2022/09/07 13:49:27;;;;;;;2.93;2.73;;;;;;;;;;4952422;28;20406;-48
2022/09/07 13:52:13;;;;;;;4.83;2.33;;;;;;;;;;4953548;29;20473;-48
2022/09/07 13:54:58;;;;;;;3.20;2.40;;;;;;;;;;4958105;28;20674;-48
2022/09/07 13:57:28;;;;;;;2.83;2.30;;;;;;;;;;4957210;28;20449;-48
2022/09/07 13:59:55;;;;;;;4.03;2.70;;;;;;;;;;4962730;28;20440;-47
2022/09/07 14:02:21;;;;;;;3.07;2.80;;;;;;;;;;4972742;28;20405;-51
2022/09/07 14:04:49;;;;;;;2.77;2.60;;;;;;;;;;4972748;28;20416;-47
2022/09/07 14:07:23;;;;;;;3.73;2.83;;;;;;;;;;4972557;28;20435;-49
2022/09/07 14:09:49;;;;;;;3.10;2.57;;;;;;;;;;4971995;28;20428;-50
2022/09/07 14:12:19;;;;;;;3.43;2.60;;;;;;;;;;4973021;28;20947;-47
2022/09/07 14:14:45;;;;;;;3.07;2.73;;;;;;;;;;4972707;28;20483;-49
2022/09/07 14:17:16;;;;;;;2.60;2.47;;;;;;;;;;4972304;28;20413;-48
2022/09/07 14:19:47;;;;;;;5.17;2.73;;;;;;;;;;4971684;28;20920;-47
2022/09/07 14:22:21;;;;;;;4.23;2.50;;;;;;;;;;4971610;28;20491;-49
2022/09/07 14:24:50;;;;;;;2.63;2.43;;;;;;;;;;4972662;28;20928;-49
2022/09/07 14:27:22;;;;;;;4.17;2.43;;;;;;;;;;4972156;28;20920;-50
2022/09/07 14:29:48;;;;;;;3.37;2.60;;;;;;;;;;4972604;28;20417;-51
2022/09/07 14:32:19;;;;;;;4.27;3.00;;;;;;;;;;4970420;28;20960;-47
2022/09/07 14:34:46;;;;;;;2.10;1.90;;;;;;;;;;4972538;28;20514;-48
2022/09/07 14:37:14;;;;;;;3.10;2.60;;;;;;;;;;4972297;28;20453;-48
2022/09/07 14:39:43;;;;;;;3.27;2.43;;;;;;;;;;4972818;28;20527;-48
2022/09/07 14:42:10;;;;;;;3.47;2.60;;;;;;;;;;4970443;28;20869;-52
2022/09/07 14:44:39;;;;;;;3.63;2.70;;;;;;;;;;4971987;28;20780;-48
2022/09/07 14:47:23;;;;;;;2.70;2.50;;;;;;;;;;4971823;28;20425;-49
2022/09/07 14:49:51;;;;;;;4.00;2.40;;;;;;;;;;4972405;28;20924;-52
2022/09/07 14:52:21;;;;;;;3.50;2.53;;;;;;;;;;4971709;28;20447;-48
2022/09/07 14:54:50;;;;;;;2.47;2.27;;;;;;;;;;4971797;28;20452;-49
2022/09/07 14:57:16;;;;;;;4.50;2.00;;;;;;;;;;4972009;28;20430;-48
2022/09/07 14:59:46;;;;;;;2.70;2.50;;;;;;;;;;4972081;28;20423;-50
2022/09/07 15:02:22;;;;;;;2.60;2.40;;;;;;;;;;4971862;28;20495;-49